createdAt,value
2023-03-16T00:00:13.998Z,5.45
2023-03-16T00:03:22.236Z,6.80
2023-03-16T00:06:25.742Z,6.17
2023-03-16T00:09:31.462Z,6.60
2023-03-16T00:12:34.917Z,8.27
2023-03-16T00:15:36.971Z,6.20
2023-03-16T00:18:39.297Z,5.73
2023-03-16T00:21:41.406Z,6.03
2023-03-16T00:24:44.501Z,6.27
2023-03-16T00:27:47.691Z,7.57
2023-03-16T00:30:49.966Z,6.47
2023-03-16T00:33:54.632Z,6.07
2023-03-16T00:36:59.973Z,5.30
2023-03-16T00:40:02.293Z,7.90
2023-03-16T00:43:04.579Z,5.53
2023-03-16T00:46:16.430Z,5.03
2023-03-16T00:49:22.561Z,5.90
2023-03-16T00:52:29.104Z,5.85
2023-03-16T00:55:35.570Z,6.93
2023-03-16T00:58:40.456Z,5.53
2023-03-16T01:04:44.957Z,4.83
2023-03-16T01:07:47.095Z,5.57
2023-03-16T01:10:49.285Z,5.33
2023-03-16T01:13:54.485Z,6.83
2023-03-16T01:16:56.830Z,6.50
2023-03-16T01:19:58.872Z,5.20
2023-03-16T01:23:00.884Z,6.43
2023-03-16T01:26:03.289Z,5.60
2023-03-16T01:29:05.434Z,4.80
2023-03-16T01:32:07.848Z,5.80
2023-03-16T01:35:10.570Z,5.43
2023-03-16T01:38:12.891Z,5.20
2023-03-16T01:41:15.292Z,5.40
2023-03-16T01:44:24.485Z,5.63
2023-03-16T01:47:26.903Z,5.00
2023-03-16T01:50:29.652Z,5.60
2023-03-16T01:53:33.538Z,3.93
2023-03-16T01:56:48.581Z,4.67
2023-03-16T02:03:08.460Z,6.07
2023-03-16T02:06:15.380Z,5.67
2023-03-16T02:09:18.954Z,5.83
2023-03-16T02:12:21.710Z,4.93
2023-03-16T02:15:23.754Z,5.67
2023-03-16T02:18:26.590Z,6.03
2023-03-16T02:21:47.383Z,5.20
2023-03-16T02:24:49.398Z,6.40
2023-03-16T02:28:10.924Z,5.60
2023-03-16T02:31:13.160Z,5.53
2023-03-16T02:34:17.950Z,7.13
2023-03-16T02:40:27.025Z,6.80
2023-03-16T02:43:34.651Z,7.73
2023-03-16T02:46:37.687Z,8.07
2023-03-16T02:49:44.562Z,6.88
2023-03-16T02:52:48.529Z,6.03
2023-03-16T02:55:50.874Z,5.68
2023-03-16T02:58:53.214Z,6.53
2023-03-16T03:01:55.337Z,5.77
2023-03-16T03:04:57.353Z,6.60
2023-03-16T03:07:59.725Z,6.20
2023-03-16T03:11:01.720Z,6.80
2023-03-16T03:14:04.221Z,9.33
2023-03-16T03:17:08.072Z,6.57
2023-03-16T03:20:17.961Z,7.10
2023-03-16T03:23:20.127Z,7.83
2023-03-16T03:26:24.694Z,6.47
2023-03-16T03:29:34.501Z,6.00
2023-03-16T03:32:44.355Z,5.63
2023-03-16T03:35:46.552Z,5.80
2023-03-16T03:38:50.709Z,5.80
2023-03-16T03:41:54.722Z,6.20
2023-03-16T03:44:56.794Z,6.63
2023-03-16T03:47:58.859Z,7.07
2023-03-16T03:51:01.507Z,5.77
2023-03-16T03:54:03.712Z,5.47
2023-03-16T03:57:05.939Z,6.90
2023-03-16T04:00:12.183Z,5.83
2023-03-16T04:03:14.854Z,6.43
2023-03-16T04:06:17.257Z,5.67
2023-03-16T04:09:20.262Z,5.67
2023-03-16T04:12:22.421Z,7.17
2023-03-16T04:15:24.791Z,6.03
2023-03-16T04:18:27.184Z,7.20
2023-03-16T04:21:29.279Z,6.17
2023-03-16T04:24:34.377Z,5.60
2023-03-16T04:27:36.749Z,8.40
2023-03-16T04:30:38.796Z,6.13
2023-03-16T04:33:42.534Z,6.20
2023-03-16T04:36:44.581Z,5.97
2023-03-16T04:39:46.894Z,6.47
2023-03-16T04:42:49.027Z,5.30
2023-03-16T04:45:51.161Z,7.27
2023-03-16T04:48:54.383Z,6.50
2023-03-16T04:51:57.847Z,7.00
2023-03-16T04:54:59.839Z,5.93
2023-03-16T04:58:01.917Z,7.37
2023-03-16T05:01:03.982Z,7.73
2023-03-16T05:04:06.006Z,6.50
2023-03-16T05:07:08.096Z,7.20
2023-03-16T05:10:11.945Z,5.90
2023-03-16T05:13:14.035Z,6.57
2023-03-16T05:16:16.757Z,6.33
2023-03-16T05:19:19.027Z,6.10
2023-03-16T05:22:21.122Z,5.87
2023-03-16T05:25:23.568Z,5.87
2023-03-16T05:28:25.792Z,8.07
2023-03-16T05:31:28.929Z,7.10
2023-03-16T05:34:31.693Z,7.37
2023-03-16T05:37:38.222Z,7.20
2023-03-16T05:40:40.392Z,6.33
2023-03-16T05:43:42.544Z,6.67
2023-03-16T05:46:45.975Z,6.40
2023-03-16T05:49:48.172Z,6.93
2023-03-16T05:52:50.413Z,6.53
2023-03-16T05:55:53.294Z,6.83
2023-03-16T05:58:56.767Z,7.23
2023-03-16T06:01:59.029Z,7.00
2023-03-16T06:05:02.007Z,5.70
2023-03-16T06:08:04.192Z,7.13
2023-03-16T06:11:06.556Z,6.40
2023-03-16T06:14:08.887Z,6.17
2023-03-16T06:17:11.830Z,7.50
2023-03-16T06:20:13.996Z,6.33
2023-03-16T06:23:16.054Z,5.40
2023-03-16T06:26:18.073Z,6.00
2023-03-16T06:29:20.216Z,7.37
2023-03-16T06:32:22.412Z,7.10
2023-03-16T06:35:24.461Z,5.60
2023-03-16T06:38:26.553Z,6.17
2023-03-16T06:41:28.534Z,6.80
2023-03-16T06:44:31.473Z,6.33
2023-03-16T06:47:33.708Z,6.47
2023-03-16T06:50:36.267Z,8.20
2023-03-16T06:53:39.332Z,5.57
2023-03-16T06:56:42.992Z,6.60
2023-03-16T06:59:46.323Z,7.00
2023-03-16T07:02:48.367Z,6.80
2023-03-16T07:05:50.395Z,7.37
2023-03-16T07:08:52.748Z,7.67
2023-03-16T07:11:54.852Z,7.70
2023-03-16T07:14:56.901Z,6.60
2023-03-16T07:17:58.892Z,7.30
2023-03-16T07:21:00.893Z,8.07
2023-03-16T07:24:02.924Z,8.60
2023-03-16T07:27:05.035Z,7.63
2023-03-16T07:30:07.698Z,8.80
2023-03-16T07:33:12.071Z,7.60
2023-03-16T07:36:14.233Z,8.13
2023-03-16T07:39:17.907Z,7.13
2023-03-16T07:42:20.091Z,7.63
2023-03-16T07:45:22.149Z,10.82
2023-03-16T07:48:24.308Z,8.18
2023-03-16T07:51:26.343Z,8.93
2023-03-16T07:54:28.645Z,9.00
2023-03-16T07:57:31.525Z,8.73
2023-03-16T08:00:34.293Z,7.63
2023-03-16T08:03:36.468Z,9.35
2023-03-16T08:06:39.110Z,9.80
2023-03-16T08:09:41.591Z,7.72
2023-03-16T08:12:43.735Z,9.05
2023-03-16T08:15:50.604Z,9.85
2023-03-16T08:18:53.395Z,8.85
2023-03-16T08:22:01.488Z,8.75
2023-03-16T08:25:06.143Z,11.27
2023-03-16T08:28:09.049Z,26.52
2023-03-16T08:31:12.488Z,28.70
2023-03-16T08:34:16.213Z,18.15
2023-03-16T08:37:24.294Z,10.45
2023-03-16T08:40:29.897Z,8.07
2023-03-16T08:43:32.771Z,11.32
2023-03-16T08:46:35.712Z,11.43
2023-03-16T08:49:38.206Z,11.70
2023-03-16T08:52:41.078Z,9.35
2023-03-16T08:55:43.157Z,10.73
2023-03-16T08:58:46.130Z,9.82
2023-03-16T09:01:48.310Z,31.60
2023-03-16T09:04:50.614Z,58.63
2023-03-16T09:07:54.220Z,60.13
2023-03-16T09:11:11.278Z,27.55
2023-03-16T09:14:14.347Z,12.98
2023-03-16T09:17:16.386Z,18.90
2023-03-16T09:20:22.839Z,12.75
2023-03-16T09:23:37.813Z,15.20
2023-03-16T09:26:40.344Z,17.00
2023-03-16T09:29:43.610Z,14.73
2023-03-16T09:32:48.863Z,13.47
2023-03-16T09:35:52.237Z,6.88
2023-03-16T09:38:54.570Z,8.80
2023-03-16T09:42:25.440Z,14.27
2023-03-16T09:45:41.769Z,10.27
2023-03-16T09:48:47.517Z,12.48
2023-03-16T09:52:08.719Z,14.63
2023-03-16T09:55:33.681Z,13.70
2023-03-16T09:58:36.936Z,6.55
2023-03-16T10:01:41.832Z,7.65
2023-03-16T10:04:52.006Z,6.13
2023-03-16T10:08:02.758Z,4.97
2023-03-16T10:11:32.123Z,3.92
2023-03-16T10:14:43.317Z,3.33
2023-03-16T10:18:13.390Z,4.80
2023-03-16T10:21:18.492Z,6.35
2023-03-16T10:24:34.455Z,5.68
2023-03-16T10:27:39.204Z,6.22
2023-03-16T10:30:43.017Z,6.47
2023-03-16T10:33:46.395Z,6.13
2023-03-16T10:36:48.646Z,4.00
2023-03-16T10:39:50.824Z,4.07
2023-03-16T10:42:53.575Z,4.47
2023-03-16T10:46:02.885Z,4.30
2023-03-16T10:49:27.256Z,4.95
2023-03-16T10:52:43.335Z,6.53
2023-03-16T10:55:47.458Z,3.97
2023-03-16T10:58:49.978Z,4.10
2023-03-16T11:01:52.329Z,4.18
2023-03-16T11:04:55.705Z,4.28
2023-03-16T11:08:27.425Z,4.18
2023-03-16T11:11:34.098Z,4.45
2023-03-16T11:14:37.378Z,3.45
2023-03-16T11:17:45.885Z,7.15
2023-03-16T11:20:48.671Z,4.03
2023-03-16T11:23:56.253Z,3.07
2023-03-16T11:27:01.872Z,11.90
2023-03-16T11:30:10.301Z,4.45
2023-03-16T11:33:15.451Z,7.45
2023-03-16T11:36:38.097Z,4.72
2023-03-16T11:40:16.094Z,5.35
2023-03-16T11:44:10.145Z,3.72
2023-03-16T11:47:27.481Z,4.80
2023-03-16T11:51:02.917Z,4.03
2023-03-16T11:54:38.383Z,4.07
2023-03-16T11:58:03.735Z,5.68
2023-03-16T12:01:15.095Z,6.25
2023-03-16T12:04:23.282Z,6.53
2023-03-16T12:07:25.967Z,8.75
2023-03-16T12:10:52.206Z,5.25
2023-03-16T12:14:06.628Z,5.20
2023-03-16T12:20:34.077Z,4.28
2023-03-16T12:23:53.494Z,3.83
2023-03-16T12:26:57.540Z,4.97
2023-03-16T12:30:27.782Z,4.38
2023-03-16T12:33:53.829Z,3.42
2023-03-16T12:37:08.189Z,3.83
2023-03-16T12:43:29.275Z,3.08
2023-03-16T12:46:49.854Z,3.80
2023-03-16T12:49:52.281Z,4.20
2023-03-16T12:52:54.730Z,3.90
2023-03-16T12:55:58.031Z,3.97
2023-03-16T12:59:10.603Z,3.20
2023-03-16T13:02:34.863Z,4.80
2023-03-16T13:05:44.256Z,3.30
2023-03-16T13:08:52.679Z,5.38
2023-03-16T13:11:55.343Z,5.57
2023-03-16T13:14:57.374Z,8.30
2023-03-16T13:18:17.839Z,8.73
2023-03-16T13:21:21.618Z,10.57
2023-03-16T13:24:35.414Z,5.40
2023-03-16T13:27:40.370Z,8.75
2023-03-16T13:30:48.729Z,5.82
2023-03-16T13:33:55.926Z,4.15
2023-03-16T13:37:01.523Z,4.70
2023-03-16T13:40:04.848Z,3.40
2023-03-16T13:43:13.771Z,4.53
2023-03-16T13:46:22.291Z,5.00
2023-03-16T13:49:24.599Z,4.47
2023-03-16T13:52:31.255Z,2.90
2023-03-16T13:55:36.660Z,4.47
2023-03-16T13:58:40.302Z,3.55
2023-03-16T14:01:45.474Z,4.05
2023-03-16T14:04:48.182Z,3.63
2023-03-16T14:07:52.126Z,3.40
2023-03-16T14:10:59.214Z,3.55
2023-03-16T14:14:18.305Z,4.20
2023-03-16T14:17:22.744Z,4.13
2023-03-16T14:20:28.739Z,2.85
2023-03-16T14:23:37.167Z,3.88
2023-03-16T14:26:47.481Z,4.43
2023-03-16T14:30:16.321Z,3.25
2023-03-16T14:33:34.552Z,3.40
2023-03-16T14:36:39.055Z,3.55
2023-03-16T14:39:41.357Z,3.25
2023-03-16T14:42:44.152Z,3.60
2023-03-16T14:45:46.641Z,3.28
2023-03-16T14:48:48.742Z,3.63
2023-03-16T14:51:53.905Z,3.83
2023-03-16T14:54:55.937Z,3.70
2023-03-16T14:57:58.079Z,4.90
2023-03-16T15:01:00.619Z,2.83
2023-03-16T15:04:03.954Z,3.45
2023-03-16T15:07:24.095Z,3.00
2023-03-16T15:10:30.068Z,3.47
2023-03-16T15:13:42.482Z,2.40
2023-03-16T15:16:44.480Z,2.97
2023-03-16T15:19:46.592Z,3.03
2023-03-16T15:22:50.102Z,10.90
2023-03-16T15:25:57.385Z,6.68
2023-03-16T15:28:59.469Z,10.00
2023-03-16T15:32:01.547Z,2.95
2023-03-16T15:35:04.296Z,6.18
2023-03-16T15:38:34.795Z,4.05
2023-03-16T15:41:47.171Z,2.55
2023-03-16T15:44:49.679Z,5.57
2023-03-16T15:47:53.934Z,3.78
2023-03-16T15:51:01.956Z,5.43
2023-03-16T15:54:07.104Z,3.55
2023-03-16T15:57:11.084Z,4.47
2023-03-16T16:00:29.022Z,3.78
2023-03-16T16:03:31.884Z,2.72
2023-03-16T16:06:34.052Z,3.22
2023-03-16T16:09:38.513Z,3.20
2023-03-16T16:12:40.679Z,3.47
2023-03-16T16:15:42.912Z,3.65
2023-03-16T16:18:46.741Z,2.25
2023-03-16T16:21:48.969Z,3.25
2023-03-16T16:24:51.580Z,2.78
2023-03-16T16:27:53.915Z,3.05
2023-03-16T16:30:56.911Z,2.70
2023-03-16T16:33:59.233Z,3.13
2023-03-16T16:37:01.250Z,2.88
2023-03-16T16:40:03.565Z,2.15
2023-03-16T16:43:06.501Z,3.55
2023-03-16T16:46:24.057Z,3.58
2023-03-16T16:49:28.470Z,2.65
2023-03-16T16:55:34.109Z,3.00
2023-03-16T16:58:36.160Z,3.33
2023-03-16T17:01:39.115Z,3.70
2023-03-16T17:04:41.345Z,3.00
2023-03-16T17:07:43.678Z,4.13
2023-03-16T17:10:46.713Z,4.15
2023-03-16T17:13:50.940Z,3.38
2023-03-16T17:16:53.539Z,2.88
2023-03-16T17:19:55.573Z,3.42
2023-03-16T17:22:58.891Z,2.72
2023-03-16T17:26:21.055Z,3.05
2023-03-16T17:29:34.025Z,3.58
2023-03-16T17:32:36.452Z,4.47
2023-03-16T17:35:38.824Z,3.08
2023-03-16T17:38:41.071Z,3.90
2023-03-16T17:41:43.939Z,2.95
2023-03-16T17:44:49.333Z,7.25
2023-03-16T17:50:53.602Z,3.25
2023-03-16T17:53:56.779Z,2.78
2023-03-16T17:56:58.917Z,3.08
2023-03-16T18:00:04.385Z,3.58
2023-03-16T18:03:14.719Z,3.33
2023-03-16T18:06:25.709Z,2.55
2023-03-16T18:09:28.862Z,4.65
2023-03-16T18:12:31.311Z,2.70
2023-03-16T18:15:36.691Z,2.92
2023-03-16T18:21:42.474Z,3.22
2023-03-16T18:24:45.308Z,3.20
2023-03-16T18:27:48.368Z,4.55
2023-03-16T18:30:52.917Z,3.67
2023-03-16T18:33:58.272Z,3.67
2023-03-16T18:37:06.250Z,3.72
2023-03-16T18:40:15.825Z,7.53
2023-03-16T18:43:18.492Z,3.03
2023-03-16T18:46:32.723Z,2.67
2023-03-16T18:49:36.927Z,2.83
2023-03-16T18:52:41.212Z,2.47
2023-03-16T18:55:46.350Z,1.98
2023-03-16T18:58:49.979Z,2.55
2023-03-16T19:01:53.361Z,2.73
2023-03-16T19:04:58.302Z,2.35
2023-03-16T19:08:00.903Z,3.40
2023-03-16T19:11:04.805Z,2.50
2023-03-16T19:14:21.055Z,2.75
2023-03-16T19:17:23.066Z,2.75
2023-03-16T19:20:32.031Z,3.38
2023-03-16T19:23:36.988Z,3.53
2023-03-16T19:26:39.168Z,2.53
2023-03-16T19:29:41.360Z,3.58
2023-03-16T19:32:43.608Z,2.60
2023-03-16T19:35:51.799Z,2.88
2023-03-16T19:38:54.613Z,3.88
2023-03-16T19:41:59.038Z,2.35
2023-03-16T19:45:01.586Z,2.97
2023-03-16T19:48:10.387Z,3.28
2023-03-16T19:51:17.646Z,3.63
2023-03-16T19:54:27.323Z,3.33
2023-03-16T19:57:29.454Z,3.38
2023-03-16T20:00:31.948Z,2.88
2023-03-16T20:03:36.599Z,4.65
2023-03-16T20:06:38.656Z,3.80
2023-03-16T20:09:40.983Z,3.03
2023-03-16T20:12:43.169Z,4.07
2023-03-16T20:15:45.521Z,5.07
2023-03-16T20:18:50.963Z,4.20
2023-03-16T20:21:53.100Z,4.55
2023-03-16T20:24:58.002Z,4.10
2023-03-16T20:28:02.358Z,6.22
2023-03-16T20:31:08.322Z,6.15
2023-03-16T20:34:23.736Z,4.85
2023-03-16T20:37:28.593Z,6.18
2023-03-16T20:40:30.968Z,4.22
2023-03-16T20:43:33.227Z,4.30
2023-03-16T20:46:35.632Z,5.07
2023-03-16T20:49:38.223Z,4.50
2023-03-16T20:52:40.651Z,5.82
2023-03-16T20:55:43.376Z,5.07
2023-03-16T20:58:49.957Z,4.30
2023-03-16T21:01:54.683Z,6.47
2023-03-16T21:04:59.594Z,4.50
2023-03-16T21:08:02.650Z,5.30
2023-03-16T21:11:08.638Z,5.03
2023-03-16T21:14:21.576Z,5.97
2023-03-16T21:17:36.425Z,5.80
2023-03-16T21:23:45.145Z,6.03
2023-03-16T21:26:48.541Z,6.50
2023-03-16T21:29:50.647Z,7.18
2023-03-16T21:32:53.952Z,7.03
2023-03-16T21:35:57.071Z,6.05
2023-03-16T21:38:59.088Z,6.90
2023-03-16T21:42:01.697Z,5.20
2023-03-16T21:45:03.948Z,6.22
2023-03-16T21:48:06.483Z,4.45
2023-03-16T21:51:30.337Z,5.95
2023-03-16T21:54:32.756Z,5.18
2023-03-16T21:57:34.713Z,5.75
2023-03-16T22:00:37.005Z,6.07
2023-03-16T22:03:50.636Z,6.90
2023-03-16T22:06:53.484Z,6.95
2023-03-16T22:09:55.988Z,5.93
2023-03-16T22:12:58.631Z,6.80
2023-03-16T22:16:01.070Z,6.35
2023-03-16T22:19:03.828Z,7.82
2023-03-16T22:22:10.064Z,5.43
2023-03-16T22:25:18.346Z,9.48
2023-03-16T22:28:23.772Z,5.88
2023-03-16T22:31:32.970Z,6.65
2023-03-16T22:34:49.358Z,5.40
2023-03-16T22:37:51.965Z,6.38
2023-03-16T22:40:54.563Z,5.53
2023-03-16T22:43:57.674Z,5.63
2023-03-16T22:46:59.674Z,6.60
2023-03-16T22:50:01.786Z,7.07
2023-03-16T22:53:07.416Z,6.43
2023-03-16T22:56:10.606Z,6.35
2023-03-16T22:59:17.333Z,6.38
2023-03-16T23:02:24.493Z,5.45
2023-03-16T23:05:29.346Z,6.00
2023-03-16T23:08:32.586Z,6.25
2023-03-16T23:11:37.173Z,5.18
2023-03-16T23:17:42.630Z,5.47
2023-03-16T23:20:46.316Z,6.68
2023-03-16T23:24:02.524Z,6.60
2023-03-16T23:27:14.641Z,4.73
2023-03-16T23:30:24.179Z,4.20
2023-03-16T23:33:27.168Z,6.20
2023-03-16T23:36:29.619Z,5.63
2023-03-16T23:39:32.624Z,5.45
2023-03-16T23:42:34.660Z,4.75
2023-03-16T23:45:45.175Z,4.40
2023-03-16T23:48:49.381Z,5.38
2023-03-16T23:51:52.695Z,6.47
2023-03-16T23:54:55.020Z,6.53
2023-03-16T23:57:58.259Z,5.05
